MDT,Max TemperatureF,Mean TemperatureF,Min TemperatureF,Max Dew PointF,MeanDew PointF,Min DewpointF,Max Humidity, Mean Humidity, Min Humidity, Max Sea Level PressureIn, Mean Sea Level PressureIn, Min Sea Level PressureIn, Max VisibilityMiles, Mean VisibilityMiles, Min VisibilityMiles, Max Wind SpeedMPH, Mean Wind SpeedMPH, Max Gust SpeedMPH,PrecipitationIn, CloudCover, Events, WindDirDegrees
2013-10-1,87,69,51,32,25,18,41,21,8,30.10,30.03,29.99,10,10,10,14,7,21,0.00,0,,281
2013-10-2,85,70,54,33,30,27,36,25,14,30.11,30.03,29.98,10,10,10,17,7,24,0.00,0,,267
2013-10-3,83,67,51,37,32,24,49,29,11,30.04,29.97,29.90,10,10,10,21,8,29,0.00,0,,260
2013-10-4,81,68,55,43,37,18,60,34,18,30.07,29.99,29.93,10,10,10,20,11,37,0.00,0,,266
2013-10-5,70,60,49,21,16,13,29,19,13,30.25,30.19,30.07,10,10,10,24,15,32,0.00,1,,353
2013-10-6,73,60,46,25,21,18,38,24,14,30.33,30.27,30.23,10,10,10,15,7,20,0.00,0,,28
2013-10-7,78,58,38,26,24,21,55,29,13,30.31,30.22,30.14,10,10,10,9,3,,0.00,0,,128
2013-10-8,83,64,44,33,28,24,49,28,13,30.13,30.04,29.94,10,10,10,14,4,26,0.00,0,,211
2013-10-9,83,64,46,54,36,30,62,35,18,30.03,29.97,29.91,10,10,10,18,8,25,0.03,1,Rain-Thunderstorm,218
2013-10-10,78,64,50,48,38,31,77,41,18,30.00,29.94,29.87,10,10,5,39,11,52,0.00,2,Thunderstorm,239
2013-10-11,72,56,41,39,34,28,70,43,25,30.08,30.03,29.99,10,10,10,17,6,26,0.00,0,,286
2013-10-12,79,62,44,37,31,25,56,33,18,30.16,30.09,30.05,10,10,10,12,6,22,0.00,0,,101
2013-10-13,82,67,52,50,43,37,67,41,22,30.16,30.10,30.04,10,10,10,20,7,28,0.00,1,,176
2013-10-14,77,68,60,50,47,44,64,48,32,30.14,30.08,30.03,10,10,10,24,11,30,0.00,1,,255
2013-10-15,74,64,54,53,43,24,73,51,27,30.09,30.04,29.98,10,10,10,18,8,24,0.00,3,,137
2013-10-16,73,61,47,49,31,10,86,45,11,30.16,30.08,30.05,10,10,10,20,9,25,0.00,1,,224
2013-10-17,73,56,38,25,20,13,52,26,12,30.16,30.07,29.99,10,10,10,13,6,20,0.00,0,,265
2013-10-18,73,56,38,30,16,12,44,22,12,30.13,30.04,29.99,10,10,10,10,6,,0.00,0,,229
2013-10-19,69,53,37,30,27,22,64,39,20,30.26,30.16,30.08,10,10,10,9,5,,0.00,0,,218
2013-10-20,76,56,35,26,18,9,60,27,9,30.09,30.01,29.93,10,10,10,18,5,24,0.00,0,,279
2013-10-21,70,53,36,34,24,12,49,30,18,30.21,30.10,29.99,10,10,10,13,6,23,0.00,0,,115
2013-10-22,71,54,37,36,31,24,77,44,18,30.30,30.23,30.17,10,10,10,7,4,,0.00,0,,123
2013-10-23,74,56,37,32,29,22,61,37,20,30.23,30.17,30.11,10,10,10,9,3,10,0.00,0,,92
2013-10-24,78,61,44,39,34,28,58,36,24,30.22,30.15,30.09,10,10,10,13,4,18,0.00,0,,112
2013-10-25,76,63,50,48,40,34,78,43,24,30.24,30.17,30.11,10,10,10,15,6,20,0.00,1,Rain-Thunderstorm,108
2013-10-26,73,60,47,44,38,30,79,47,20,30.28,30.22,30.17,10,10,10,15,7,17,0.00,0,,14
2013-10-27,72,56,41,39,37,33,75,49,29,30.24,30.13,29.98,10,10,10,8,5,,0.00,0,,136
2013-10-28,76,59,42,40,29,20,75,37,13,30.04,29.99,29.95,10,10,10,22,6,30,0.00,0,,233
2013-10-29,70,62,55,37,29,24,40,27,17,30.09,30.03,29.98,10,10,10,14,8,18,0.00,0,,218
2013-10-30,69,57,44,44,38,27,66,45,31,30.03,29.99,29.88,10,10,7,25,13,41,0.01,2,Rain,237
2013-10-31,66,47,28,28,20,12,78,36,14,30.16,30.08,30.00,10,10,10,20,8,24,0.00,0,,269